Latest Weather Observations for Perth Airport

IDW60801

Issued at 6:05 pm WST Tuesday 23 September 2014 (issued every 30 minutes, with the page automatically refreshed every 10 minutes)

About weather observations | Map of weather stations | Latest weather observations for WA | Other Formats
Station Details ID: 009021 Name: PERTH AIRPORT Lat: -31.93 Lon: 115.98 Height: 15.4 m
Data from the previous 72 hours. | See also: Recent months at Perth Airport
Date/Time
WST
Temp
°C
App
Temp
°C
Dew
Point
Rel
Hum
%
Delta-T
°C
Wind Press
QNH
hPa
Press
MSL
hPa
Rain
since 9 am
mm
Dir
 
Spd
km/h
Gust
km/h
Spd
kts
Gust
kts
23/06:00pm 15.4 12.7 8.9 65 3.3 S 13 15 7 8 1025.5 1025.6 0.0
23/05:30pm 15.7 12.5 8.6 62 3.6 S 15 19 8 10 1025.4 - 0.0
23/05:00pm 16.0 13.2 8.5 61 3.8 S 13 17 7 9 1025.3 - 0.0
23/04:30pm 16.2 13.0 8.3 59 4.0 S 15 19 8 10 1025.1 - 0.0
23/04:00pm 16.4 13.5 8.1 58 4.2 S 13 15 7 8 1024.9 - 0.0
23/03:30pm 16.6 13.7 8.3 58 4.2 SSW 13 19 7 10 1024.9 - 0.0
23/03:00pm 16.7 13.8 8.0 56 4.4 S 13 19 7 10 1025.2 1025.3 0.0
23/02:30pm 16.8 14.1 7.3 53 4.7 SSW 11 17 6 9 1025.3 - 0.0
23/02:00pm 17.0 14.0 7.9 55 4.6 S 13 19 7 10 1025.5 - 0.0
23/01:30pm 16.5 13.4 7.2 54 4.6 SSW 13 17 7 9 1025.7 - 0.0
23/01:00pm 16.4 12.9 7.1 54 4.6 SSW 15 20 8 11 1025.9 - 0.0
23/12:30pm 16.9 14.9 7.2 52 4.8 SSW 7 15 4 8 1025.9 - 0.0
23/12:00pm 16.7 14.3 7.2 53 4.7 SW 9 11 5 6 1026.2 1026.3 0.0
23/11:30am 15.8 13.4 6.8 55 4.4 S 9 15 5 8 1026.5 - 0.0
23/11:00am 15.5 13.3 6.4 54 4.4 E 7 13 4 7 1026.9 - 0.0
23/10:30am 15.2 13.1 6.5 56 4.2 E 7 13 4 7 1027.2 - 0.0
23/10:00am 15.0 12.4 6.2 55 4.2 ENE 9 15 5 8 1027.3 - 0.0
23/09:30am 14.1 10.7 5.8 57 3.9 E 13 17 7 9 1027.3 - 0.0
23/09:00am 13.5 10.0 5.6 59 3.7 ENE 13 15 7 8 1027.4 1027.5 0.0
23/08:30am 12.4 9.7 5.7 63 3.1 NE 9 15 5 8 1027.3 - 0.0
23/08:00am 11.1 8.7 6.9 75 2.0 NNE 9 11 5 6 1027.2 - 0.0
23/07:30am 9.9 6.6 6.2 78 1.7 NE 13 15 7 8 1026.9 - 0.0
23/07:00am 8.8 5.5 6.2 84 1.2 NE 13 13 7 7 1026.7 - 0.0
23/06:30am 7.6 5.0 6.0 90 0.7 NE 9 13 5 7 1026.4 - 0.0
23/06:00am 6.8 4.5 5.9 94 0.4 NE 7 9 4 5 1026.3 1026.4 0.0
23/05:30am 6.0 4.6 5.3 95 0.3 E 2 7 1 4 1026.2 - 0.0
23/05:00am 4.7 2.1 4.2 97 0.2 E 7 9 4 5 1025.9 - 0.0
23/04:30am 5.0 3.8 4.5 97 0.2 CALM 0 6 0 3 1025.7 - 0.0
23/04:00am 5.3 3.4 4.8 97 0.2 E 4 7 2 4 1025.7 - 0.0
23/03:30am 5.5 3.0 5.0 97 0.2 E 7 7 4 4 1025.5 - 0.0
23/03:00am 5.5 3.0 4.8 95 0.3 E 7 9 4 5 1025.6 1025.7 0.0
23/02:30am 5.6 4.5 5.1 97 0.2 CALM 0 0 0 0 1025.6 - 0.0
23/02:00am 6.4 4.2 5.5 94 0.4 SSW 6 7 3 4 1025.9 - 0.0
23/01:30am 6.7 4.0 5.6 93 0.5 SSW 9 11 5 6 1026.1 - 0.0
23/01:00am 7.6 4.6 6.0 90 0.7 S 11 13 6 7 1026.0 - 0.0
23/12:30am 7.2 4.3 6.3 94 0.4 SSE 11 11 6 6 1025.9 - 0.0
23/12:00am 7.8 5.9 6.5 91 0.6 SSE 6 7 3 4 1026.0 1026.1 0.0
 
Date/Time
WST
Temp
°C
App
Temp
°C
Dew
Point
Rel
Hum
%
Delta-T
°C
Wind Press
QNH
hPa
Press
MSL
hPa
Rain
since 9 am
mm
Dir
 
Spd
km/h
Gust
km/h
Spd
kts
Gust
kts
22/11:30pm 8.3 5.5 6.8 90 0.7 S 11 13 6 7 1026.1 - 0.0
22/11:00pm 10.4 7.4 7.5 82 1.4 S 13 15 7 8 1026.1 - 0.0
22/10:30pm 11.7 8.9 6.8 72 2.3 SSE 11 13 6 7 1026.2 - 0.0
22/10:00pm 9.7 7.9 7.1 84 1.2 SSE 6 7 3 4 1026.2 - 0.0
22/09:30pm 10.0 7.6 7.0 81 1.4 S 9 9 5 5 1026.0 - 0.0
22/09:00pm 11.8 8.7 7.2 73 2.2 S 13 15 7 8 1026.0 1026.1 0.0
22/08:30pm 12.5 8.6 7.1 69 2.6 S 17 19 9 10 1025.7 - 0.0
22/08:00pm 13.5 8.9 6.4 62 3.4 SSW 20 24 11 13 1025.4 - 0.0
22/07:30pm 13.7 9.3 6.4 61 3.5 SSW 19 26 10 14 1025.1 - 0.0
22/07:00pm 14.0 9.6 6.7 61 3.5 SSW 19 28 10 15 1024.7 - 0.0
22/06:30pm 14.3 9.9 6.6 60 3.7 SSW 19 24 10 13 1024.2 - 0.0
22/06:00pm 14.8 8.6 6.3 56 4.1 SSW 28 37 15 20 1023.8 1023.9 0.0
22/05:30pm 15.8 9.9 5.8 51 4.8 SSW 26 33 14 18 1023.2 - 0.0
22/05:00pm 16.5 9.4 5.4 48 5.3 SW 32 39 17 21 1022.9 - 0.0
22/04:30pm 16.8 11.0 6.3 50 5.1 SW 26 35 14 19 1022.4 - 0.0
22/04:00pm 17.4 11.4 6.9 50 5.2 SW 28 35 15 19 1022.3 - 0.0
22/03:30pm 17.4 11.6 6.1 47 5.5 SW 26 33 14 18 1021.9 - 0.0
22/03:00pm 17.3 12.1 5.7 46 5.6 SW 22 35 12 19 1021.6 1021.6 0.0
22/02:30pm 17.7 12.5 3.5 38 6.6 SSW 20 33 11 18 1021.6 - 0.0
22/02:00pm 17.1 10.7 3.4 40 6.3 S 26 33 14 18 1021.7 - 0.0
22/01:30pm 17.0 11.9 3.3 40 6.3 SW 19 30 10 16 1021.7 - 0.0
22/01:00pm 16.7 9.9 3.1 40 6.2 SSW 28 35 15 19 1021.7 - 0.0
22/12:30pm 17.0 11.9 3.9 41 6.1 S 20 33 11 18 1021.7 - 0.0
22/12:00pm 16.8 10.1 3.6 41 6.1 SSW 28 39 15 21 1021.9 1021.9 0.0
22/11:30am 17.0 11.2 4.5 43 5.9 S 24 37 13 20 1022.0 - 0.0
22/11:00am 16.5 11.5 4.6 45 5.6 SSW 20 28 11 15 1022.3 - 0.0
22/10:30am 15.9 9.8 4.6 47 5.3 S 26 33 14 18 1022.3 - 0.0
22/10:00am 15.3 9.7 5.4 51 4.7 S 24 32 13 17 1022.4 - 0.0
22/09:30am 14.4 8.8 5.2 54 4.3 S 24 33 13 18 1022.4 - 0.0
22/09:00am 13.7 9.3 6.4 61 3.5 S 19 26 10 14 1022.5 1022.5 20.8
22/08:30am 12.8 10.0 7.0 68 2.8 S 11 15 6 8 1022.0 - 20.6
22/08:00am 11.7 8.8 8.2 79 1.7 SSE 13 15 7 8 1021.7 - 20.6
22/07:30am 10.8 6.5 7.2 78 1.7 SSW 19 26 10 14 1021.2 - 20.6
22/07:00am 10.2 6.4 7.5 83 1.3 SSW 17 24 9 13 1021.1 - 20.6
22/06:30am 9.6 7.4 7.9 89 0.8 SSW 9 13 5 7 1019.9 - 20.6
22/06:00am 9.6 6.6 7.9 89 0.8 S 13 20 7 11 1019.5 1019.5 20.6
22/05:30am 10.1 7.4 8.9 92 0.6 SSW 13 17 7 9 1019.5 - 20.0
22/05:00am 10.2 7.8 8.8 91 0.7 SSW 11 13 6 7 1018.4 - 19.8
22/04:30am 10.1 7.3 8.7 91 0.7 S 13 15 7 8 1018.0 - 19.8
22/04:00am 10.4 7.7 8.8 90 0.8 S 13 17 7 9 1017.4 - 19.8
22/03:30am 10.5 7.0 8.9 90 0.8 S 17 28 9 15 1017.1 - 19.8
22/03:00am 10.7 6.8 8.7 87 1.0 SSW 19 26 10 14 1016.8 1016.8 19.4
22/02:30am 10.5 7.0 8.7 89 0.9 S 17 20 9 11 1016.1 - 19.4
22/02:00am 10.5 6.1 9.1 91 0.7 S 22 30 12 16 1015.8 - 19.4
22/01:30am 11.0 6.3 9.2 89 0.9 SSW 24 32 13 17 1015.9 - 19.4
22/01:00am 11.1 7.5 9.7 91 0.7 SSW 19 24 10 13 1015.8 - 19.4
22/12:30am 11.1 7.9 9.9 92 0.6 S 17 24 9 13 1015.7 - 19.4
22/12:00am 11.5 7.3 9.9 90 0.8 S 22 28 12 15 1015.3 1015.3 19.4
 
Date/Time
WST
Temp
°C
App
Temp
°C
Dew
Point
Rel
Hum
%
Delta-T
°C
Wind Press
QNH
hPa
Press
MSL
hPa
Rain
since 9 am
mm
Dir
 
Spd
km/h
Gust
km/h
Spd
kts
Gust
kts
21/11:30pm 11.9 6.9 9.7 86 1.1 S 26 37 14 20 1014.8 - 19.4
21/11:00pm 12.0 6.3 9.8 86 1.1 S 30 35 16 19 1014.5 - 19.4
21/10:30pm 12.0 6.3 9.8 86 1.1 SSW 30 41 16 22 1014.2 - 19.4
21/10:00pm 12.1 8.0 10.2 88 1.0 SSW 22 32 12 17 1013.8 - 19.4
21/09:30pm 12.0 7.2 10.2 89 0.9 SSW 26 35 14 19 1013.2 - 19.4
21/09:00pm 12.1 6.9 10.4 89 0.9 SW 28 33 15 18 1012.2 1012.2 19.4
21/08:30pm 12.1 6.2 10.4 89 0.9 S 32 41 17 22 1011.6 - 19.4
21/08:23pm 12.1 6.1 10.2 88 1.0 S 32 39 17 21 1011.7 - 19.4
21/08:00pm 11.7 5.0 10.9 95 0.4 SSW 37 50 20 27 1011.8 - 19.4
21/07:42pm 11.9 5.6 11.1 95 0.4 SSW 35 54 19 29 1011.3 - 19.4
21/07:39pm 11.9 5.2 11.1 95 0.4 SSW 37 54 20 29 1011.1 - 19.4
21/07:30pm 12.1 4.6 10.8 92 0.7 SSW 41 54 22 29 1010.9 - 19.2
21/07:13pm 12.2 4.2 10.3 88 1.0 SSW 43 63 23 34 1010.5 - 19.0
21/07:00pm 12.5 5.4 10.8 89 0.9 SSW 39 52 21 28 1010.1 - 18.6
21/06:48pm 12.8 4.9 10.9 88 1.0 SW 43 56 23 30 1010.0 - 17.8
21/06:30pm 13.4 9.9 12.3 93 0.6 W 22 44 12 24 1009.8 - 16.0
21/06:16pm 13.7 11.0 13.0 96 0.4 WNW 19 30 10 16 1009.5 - 14.6
21/06:00pm 13.7 11.3 12.8 94 0.5 NNW 17 22 9 12 1009.0 1009.0 13.6
21/05:43pm 13.9 10.9 12.6 92 0.7 N 20 28 11 15 1008.8 - 13.2
21/05:30pm 14.1 10.7 12.6 91 0.8 N 22 28 12 15 1008.4 - 13.0
21/05:00pm 14.3 11.6 12.8 91 0.8 N 19 28 10 15 1008.6 - 13.0
21/04:30pm 14.2 10.6 13.1 93 0.6 N 24 26 13 14 1008.9 - 13.0
21/04:00pm 14.2 11.6 13.1 93 0.6 N 19 24 10 13 1008.7 - 13.0
21/03:30pm 14.0 12.2 13.3 96 0.4 NNE 15 19 8 10 1007.7 - 13.0
21/03:00pm 13.7 12.8 12.6 93 0.6 NE 9 13 5 7 1008.6 1008.6 12.8
21/02:30pm 13.8 13.8 12.5 92 0.7 S 4 7 2 4 1008.7 - 12.4
21/02:00pm 13.7 12.4 12.4 92 0.7 S 11 17 6 9 1008.0 - 11.6
21/01:30pm 14.0 12.4 12.9 93 0.6 W 13 28 7 15 1008.3 - 10.6
21/01:06pm 14.4 11.7 13.5 94 0.5 SW 20 32 11 17 1007.5 - 9.0
21/01:00pm 14.4 12.6 13.3 93 0.6 W 15 24 8 13 1007.6 - 8.8
21/12:30pm 14.1 11.2 13.0 93 0.6 W 20 30 11 16 1008.4 - 7.8
21/12:00pm 14.2 9.9 13.1 93 0.6 W 28 41 15 22 1007.6 1007.6 5.6
21/11:30am 14.8 11.2 14.1 96 0.4 WSW 26 37 14 20 1006.8 - 2.8
21/11:10am 15.3 11.7 14.2 93 0.6 WSW 26 39 14 21 1006.5 - 1.2
21/11:00am 15.4 11.4 14.0 91 0.8 WSW 28 37 15 20 1006.3 - 1.0
21/10:30am 15.4 10.5 13.8 90 0.9 WSW 32 48 17 26 1005.9 - 0.6
21/10:24am 15.8 11.3 14.8 94 0.6 WSW 32 46 17 25 1005.8 - 0.4
21/10:16am 16.3 11.7 14.7 90 0.9 W 32 48 17 26 1005.7 - 0.2
21/10:07am 17.0 12.7 15.5 91 0.9 WSW 32 43 17 23 1005.2 - 0.0
21/10:00am 18.4 13.7 14.8 79 2.1 WNW 33 56 18 30 1004.8 - 0.0
21/09:57am 21.8 15.8 12.1 54 5.5 WNW 35 56 19 30 1004.5 - 0.0
21/09:50am 22.1 14.9 11.8 52 5.8 N 41 59 22 32 1004.4 - 0.0
21/09:30am 21.9 14.9 11.3 51 5.9 N 39 52 21 28 1004.7 - 0.0
21/09:15am 21.8 15.0 10.5 48 6.2 N 37 56 20 30 1004.6 - 0.0
21/09:00am 21.8 14.1 10.3 48 6.3 N 41 43 22 23 1004.6 1004.6 0.0
21/08:51am 22.5 15.2 10.3 46 6.7 N 39 57 21 31 1004.6 - 0.0
21/08:30am 21.4 14.0 9.7 47 6.3 N 39 52 21 28 1005.2 - 0.0
21/08:00am 20.1 12.5 9.2 49 5.8 N 39 52 21 28 1005.5 - 0.0
21/07:30am 20.3 14.0 9.0 48 6.0 N 32 41 17 22 1005.9 - 0.0
21/07:20am 19.6 13.4 9.2 51 5.5 N 32 52 17 28 1005.8 - 0.0
21/07:00am 19.2 13.1 9.8 54 5.0 N 32 39 17 21 1005.9 - 0.0
21/06:30am 18.5 14.0 10.1 58 4.5 N 24 33 13 18 1006.2 - 0.0
21/06:00am 18.0 14.4 10.6 62 4.0 N 20 24 11 13 1006.3 1006.3 0.0
21/05:30am 17.8 14.0 11.0 64 3.7 NNE 22 28 12 15 1006.1 - 0.0
21/05:00am 18.3 14.4 10.9 62 4.0 NNE 22 32 12 17 1006.4 - 0.0
21/04:30am 18.5 14.7 11.2 62 4.0 N 22 28 12 15 1006.6 - 0.0
21/04:00am 17.9 14.0 10.9 63 3.8 N 22 26 12 14 1006.8 - 0.0
21/03:30am 18.1 14.2 10.9 63 3.9 N 22 28 12 15 1007.1 - 0.0
21/03:00am 17.3 14.2 11.6 69 3.1 N 19 26 10 14 1007.6 1007.6 0.0
21/02:30am 17.0 14.7 13.1 78 2.2 N 17 20 9 11 1007.9 - 0.0
21/02:00am 16.9 14.5 13.7 81 1.8 NNE 19 24 10 13 1008.5 - 0.0
21/01:30am 16.8 14.5 14.0 83 1.6 NNE 19 22 10 12 1009.1 - 0.0
21/01:00am 16.6 14.9 14.7 88 1.1 NNE 17 19 9 10 1009.6 - 0.0
21/12:30am 16.5 15.1 14.4 87 1.2 NNE 15 19 8 10 1009.8 - 0.0
21/12:00am 16.6 15.8 14.1 85 1.4 NNE 11 13 6 7 1010.2 1010.2 0.0
 
Date/Time
WST
Temp
°C
App
Temp
°C
Dew
Point
Rel
Hum
%
Delta-T
°C
Wind Press
QNH
hPa
Press
MSL
hPa
Rain
since 9 am
mm
Dir
 
Spd
km/h
Gust
km/h
Spd
kts
Gust
kts
20/11:30pm 16.5 16.0 13.7 83 1.6 NNE 9 9 5 5 1010.4 - 0.0
20/11:00pm 17.4 15.7 13.7 79 2.1 NNE 15 17 8 9 1011.4 - 0.0
20/10:30pm 17.4 16.1 13.7 79 2.1 NNE 13 15 7 8 1011.9 - 0.0
20/10:00pm 18.1 17.3 14.1 77 2.3 NNE 11 13 6 7 1012.4 - 0.0
20/09:30pm 18.8 17.7 14.3 75 2.6 N 13 17 7 9 1012.8 - 0.0
20/09:00pm 18.8 17.6 13.9 73 2.8 NNE 13 15 7 8 1012.9 1012.9 0.0
20/08:30pm 19.4 18.0 14.4 73 2.9 N 15 22 8 12 1012.8 - 0.0
20/08:00pm 19.3 18.4 14.8 75 2.6 N 13 17 7 9 1012.8 - 0.0
20/07:30pm 19.8 18.6 15.0 74 2.8 N 15 20 8 11 1012.6 - 0.0
20/07:00pm 20.6 19.3 14.8 69 3.4 N 15 24 8 13 1012.5 - 0.0
20/06:30pm 21.2 17.8 14.7 66 3.8 NNW 26 37 14 20 1012.3 - 0.0

Other Formats:

Comma delimited format used in spreadsheet applications
http://www.bom.gov.au/fwo/IDW60801/IDW60801.94610.axf

JavaScript Object Notation format (JSON) in row-major order
http://www.bom.gov.au/fwo/IDW60801/IDW60801.94610.json